Heron Island AWS may experience intermittent outages while the Heron Island Research Station upgrades infrastructure on the island

Latest Weather Observations for Heron Island

IDQ60801

Issued at 9:52 am EST Tuesday 20 October 2020 (issued every 10 minutes, with the page automatically refreshed every 10 minutes)

About weather observations | Map of weather stations | Latest weather observations for QLD | Other Formats
Station Details ID: 039122 Name: HERON ISLAND RES STN Lat: -23.44 Lon: 151.91 Height: 3.3 m
Data from the previous 72 hours. | See also: Recent months at Heron Island
Date/Time
EST
Temp
°C
App
Temp
°C
Dew
Point
°C
Rel
Hum
%
Delta-T
°C
Wind Press
QNH
hPa
Press
MSL
hPa
Rain since
9am
mm
Dir  Spd
km/h
Gust
km/h
Spd
kts
Gust
kts
20/09:30am - - - - - N 9 13 5 7 - - -
20/09:00am - - - - - NNE 9 13 5 7 - - -
20/08:30am - - - - - NNE 9 13 5 7 - - -
20/08:00am - - - - - NNE 11 15 6 8 - - -
20/07:30am - - - - - NNE 11 13 6 7 - - -
20/07:00am - - - - - NNE 13 15 7 8 - - -
20/06:30am - - - - - NNE 11 13 6 7 - - -
20/06:00am - - - - - NNE 13 17 7 9 - - -
20/05:30am - - - - - NNE 15 19 8 10 - - -
20/05:00am - - - - - NNE 13 19 7 10 - - -
20/04:30am - - - - - NNE 11 15 6 8 - - -
20/04:00am - - - - - NE 9 13 5 7 - - -
20/03:30am - - - - - NE 11 13 6 7 - - -
20/03:00am - - - - - NE 9 13 5 7 - - -
20/02:30am - - - - - N 4 9 2 5 - - -
20/02:00am - - - - - CALM 0 0 0 0 - - -
20/01:30am - - - - - CALM 0 0 0 0 - - -
20/01:00am - - - - - NNE 2 9 1 5 - - -
20/12:30am - - - - - N 11 15 6 8 - - -
20/12:00am - - - - - N 13 15 7 8 - - -
 
Date/Time
EST
Temp
°C
App
Temp
°C
Dew
Point
°C
Rel
Hum
%
Delta-T
°C
Wind Press
QNH
hPa
Press
MSL
hPa
Rain since
9am
mm
Dir  Spd
km/h
Gust
km/h
Spd
kts
Gust
kts
19/11:30pm - - - - - N 13 15 7 8 - - -
19/11:00pm - - - - - N 15 17 8 9 - - -
19/10:30pm - - - - - N 17 19 9 10 - - -
19/10:00pm - - - - - N 15 19 8 10 - - -
19/09:30pm - - - - - N 17 20 9 11 - - -
19/09:00pm - - - - - N 17 20 9 11 - - -
19/08:30pm - - - - - N 17 22 9 12 - - -
19/08:00pm - - - - - N 20 26 11 14 - - -
19/07:30pm - - - - - N 22 24 12 13 - - -
19/07:00pm - - - - - N 24 30 13 16 - - -
19/06:30pm - - - - - N 30 33 16 18 - - -
19/06:00pm - - - - - N 30 32 16 17 - - -
19/05:30pm - - - - - N 28 33 15 18 - - -
19/05:00pm - - - - - N 28 32 15 17 - - -
19/04:30pm - - - - - N 22 30 12 16 - - -
19/04:00pm - - - - - NNE 22 28 12 15 - - -
19/03:30pm - - - - - NNE 15 19 8 10 - - -
19/03:00pm - - - - - N 17 19 9 10 - - -
19/02:30pm - - - - - NNW 9 13 5 7 - - -
19/02:00pm - - - - - NW 9 13 5 7 - - -
19/01:30pm - - - - - NW 11 13 6 7 - - -
19/01:00pm - - - - - NW 9 15 5 8 - - -
19/12:30pm - - - - - WNW 9 13 5 7 - - -
19/12:00pm - - - - - WNW 11 13 6 7 - - -
19/11:30am - - - - - WNW 7 11 4 6 - - -
19/11:00am - - - - - NW 11 13 6 7 - - -
19/10:30am - - - - - NW 11 15 6 8 - - -
19/10:00am - - - - - NNW 11 15 6 8 - - -
19/09:30am - - - - - NNW 11 15 6 8 - - -
19/09:00am - - - - - NNW 11 15 6 8 - - -
19/08:30am - - - - - NNW 13 17 7 9 - - -
19/08:00am - - - - - NNW 13 17 7 9 - - -
19/07:30am - - - - - NNW 11 15 6 8 - - -
19/07:00am - - - - - NNW 9 15 5 8 - - -
19/06:30am - - - - - NNW 11 15 6 8 - - -
19/06:00am - - - - - NW 11 15 6 8 - - -
19/05:30am - - - - - NNW 11 15 6 8 - - -
19/05:00am - - - - - NNW 11 13 6 7 - - -
19/04:30am - - - - - NNW 13 15 7 8 - - -
19/04:00am - - - - - N 13 17 7 9 - - -
19/03:30am - - - - - N 13 17 7 9 - - -
19/03:00am - - - - - N 13 19 7 10 - - -
19/02:30am - - - - - N 19 26 10 14 - - -
19/02:00am - - - - - N 17 26 9 14 - - -
19/01:30am - - - - - N 19 26 10 14 - - -
19/01:00am - - - - - N 24 32 13 17 - - -
19/12:30am - - - - - N 28 35 15 19 - - -
19/12:00am - - - - - N 24 30 13 16 - - -
 
Date/Time
EST
Temp
°C
App
Temp
°C
Dew
Point
°C
Rel
Hum
%
Delta-T
°C
Wind Press
QNH
hPa
Press
MSL
hPa
Rain since
9am
mm
Dir  Spd
km/h
Gust
km/h
Spd
kts
Gust
kts
18/11:30pm - - - - - N 20 28 11 15 - - -
18/11:00pm - - - - - N 28 32 15 17 - - -
18/10:30pm - - - - - N 28 32 15 17 - - -
18/10:00pm - - - - - N 28 32 15 17 - - -
18/09:30pm - - - - - N 28 30 15 16 - - -
18/09:00pm - - - - - N 20 26 11 14 - - -
18/08:30pm - - - - - N 19 24 10 13 - - -
18/08:00pm - - - - - NNE 19 26 10 14 - - -
18/07:30pm - - - - - NNE 17 20 9 11 - - -
18/07:00pm - - - - - N 15 20 8 11 - - -
18/06:30pm - - - - - N 19 24 10 13 - - -
18/06:00pm - - - - - N 20 26 11 14 - - -
18/05:30pm - - - - - N 20 24 11 13 - - -
18/05:00pm - - - - - N 20 24 11 13 - - -
18/04:30pm - - - - - N 19 22 10 12 - - -
18/04:00pm - - - - - N 17 19 9 10 - - -
18/03:30pm - - - - - N 15 17 8 9 - - -
18/03:00pm - - - - - N 11 17 6 9 - - -
18/02:30pm - - - - - N 13 17 7 9 - - -
18/02:00pm - - - - - N 11 15 6 8 - - -
18/01:30pm - - - - - N 13 15 7 8 - - -
18/01:00pm - - - - - NNW 9 13 5 7 - - -
18/12:30pm - - - - - N 9 13 5 7 - - -
18/12:00pm - - - - - N 11 13 6 7 - - -
18/11:30am - - - - - N 9 13 5 7 - - -
18/11:00am - - - - - NNE 9 13 5 7 - - -
18/10:30am - - - - - NNE 9 15 5 8 - - -
18/10:00am - - - - - NNE 9 13 5 7 - - -
18/09:30am - - - - - NNE 9 15 5 8 - - -
18/09:00am - - - - - NNE 13 17 7 9 - - -
18/08:30am - - - - - NNE 13 17 7 9 - - -
18/08:00am - - - - - NNE 15 19 8 10 - - -
18/07:30am - - - - - NNE 17 22 9 12 - - -
18/07:00am - - - - - NE 15 19 8 10 - - -
18/06:30am - - - - - ENE 13 19 7 10 - - -
18/06:00am - - - - - NE 15 20 8 11 - - -
18/05:30am - - - - - NE 17 20 9 11 - - -
18/05:00am - - - - - N 13 17 7 9 - - -
18/04:30am - - - - - ENE 11 19 6 10 - - -
18/04:00am - - - - - NE 9 13 5 7 - - -
18/03:30am - - - - - ENE 9 11 5 6 - - -
18/03:00am - - - - - ENE 11 15 6 8 - - -
18/02:30am - - - - - ENE 9 11 5 6 - - -
18/02:00am - - - - - ENE 13 19 7 10 - - -
18/01:30am - - - - - E 13 19 7 10 - - -
18/01:00am - - - - - ENE 13 19 7 10 - - -
18/12:30am - - - - - E 17 22 9 12 - - -
18/12:00am - - - - - E 17 24 9 13 - - -
 
Date/Time
EST
Temp
°C
App
Temp
°C
Dew
Point
°C
Rel
Hum
%
Delta-T
°C
Wind Press
QNH
hPa
Press
MSL
hPa
Rain since
9am
mm
Dir  Spd
km/h
Gust
km/h
Spd
kts
Gust
kts
17/11:30pm - - - - - E 15 20 8 11 - - -
17/11:00pm - - - - - E 15 24 8 13 - - -
17/10:30pm - - - - - E 19 26 10 14 - - -
17/10:00pm - - - - - E 19 28 10 15 - - -
17/09:30pm - - - - - E 20 30 11 16 - - -
17/09:00pm - - - - - E 20 32 11 17 - - -
17/08:30pm - - - - - E 20 30 11 16 - - -
17/08:00pm - - - - - E 20 28 11 15 - - -
17/07:30pm - - - - - E 17 26 9 14 - - -
17/07:00pm - - - - - E 13 20 7 11 - - -
17/06:30pm - - - - - E 17 26 9 14 - - -
17/06:00pm - - - - - E 15 22 8 12 - - -
17/05:30pm - - - - - E 13 20 7 11 - - -
17/05:00pm - - - - - E 15 24 8 13 - - -
17/04:30pm - - - - - E 15 22 8 12 - - -
17/04:00pm - - - - - E 15 20 8 11 - - -
17/03:30pm - - - - - ENE 15 20 8 11 - - -
17/03:00pm - - - - - E 15 22 8 12 - - -
17/02:30pm - - - - - ENE 17 24 9 13 - - -
17/02:00pm - - - - - E 15 22 8 12 - - -
17/01:30pm - - - - - E 15 20 8 11 - - -
17/01:00pm - - - - - ENE 19 28 10 15 - - -
17/12:30pm - - - - - E 15 22 8 12 - - -
17/12:00pm - - - - - E 15 20 8 11 - - -
17/11:30am - - - - - ENE 17 24 9 13 - - -
17/11:00am - - - - - ENE 19 24 10 13 - - -
17/10:30am - - - - - ENE 13 19 7 10 - - -
17/10:00am - - - - - E 15 22 8 12 - - -

Other formats

Comma delimited format used in spreadsheet applications
http://www.bom.gov.au/fwo/IDQ60801/IDQ60801.94386.axf

JavaScript Object Notation format (JSON) in row-major order
http://www.bom.gov.au/fwo/IDQ60801/IDQ60801.94386.json

Data quality

Most of these data are generated automatically and are frequently updated. Quality checks on data are not normally performed. It is possible for incorrect values to appear. Refer to information at About Latest Weather Observations and please check the disclaimer before using these data.